sensor_id;sensor_type;location;lat;lon;timestamp;temperature;humidity
6252;DHT22;3159;52.414;9.784;2022-11-15T00:02:11;7.80;99.90
6252;DHT22;3159;52.414;9.784;2022-11-15T00:04:39;7.80;99.90
6252;DHT22;3159;52.414;9.784;2022-11-15T00:07:06;7.80;99.90
6252;DHT22;3159;52.414;9.784;2022-11-15T00:09:32;7.80;99.90
6252;DHT22;3159;52.414;9.784;2022-11-15T00:11:59;7.80;99.90
6252;DHT22;3159;52.414;9.784;2022-11-15T00:14:27;7.80;99.90
6252;DHT22;3159;52.414;9.784;2022-11-15T00:16:53;7.80;99.90
6252;DHT22;3159;52.414;9.784;2022-11-15T00:19:20;7.80;99.90
6252;DHT22;3159;52.414;9.784;2022-11-15T00:21:48;7.80;99.90
6252;DHT22;3159;52.414;9.784;2022-11-15T00:24:15;7.80;99.90
6252;DHT22;3159;52.414;9.784;2022-11-15T00:26:42;7.70;99.90
6252;DHT22;3159;52.414;9.784;2022-11-15T00:29:09;7.70;99.90
6252;DHT22;3159;52.414;9.784;2022-11-15T00:31:36;7.70;99.90
6252;DHT22;3159;52.414;9.784;2022-11-15T00:34:03;7.60;99.90
6252;DHT22;3159;52.414;9.784;2022-11-15T00:36:32;7.60;99.90
6252;DHT22;3159;52.414;9.784;2022-11-15T00:39:02;7.60;99.90
6252;DHT22;3159;52.414;9.784;2022-11-15T00:41:29;7.50;99.90
6252;DHT22;3159;52.414;9.784;2022-11-15T00:43:56;7.50;99.90
6252;DHT22;3159;52.414;9.784;2022-11-15T00:46:23;7.60;99.90
6252;DHT22;3159;52.414;9.784;2022-11-15T00:48:50;7.40;99.90
6252;DHT22;3159;52.414;9.784;2022-11-15T00:51:17;7.40;99.90
6252;DHT22;3159;52.414;9.784;2022-11-15T00:53:44;7.50;99.90
6252;DHT22;3159;52.414;9.784;2022-11-15T00:56:12;7.50;99.90
6252;DHT22;3159;52.414;9.784;2022-11-15T00:58:39;7.50;99.90
6252;DHT22;3159;52.414;9.784;2022-11-15T01:01:07;7.50;99.90
6252;DHT22;3159;52.414;9.784;2022-11-15T01:03:35;7.50;99.90
6252;DHT22;3159;52.414;9.784;2022-11-15T01:06:02;7.60;99.90
6252;DHT22;3159;52.414;9.784;2022-11-15T01:08:29;7.60;99.90
6252;DHT22;3159;52.414;9.784;2022-11-15T01:11:00;7.60;99.90
6252;DHT22;3159;52.414;9.784;2022-11-15T01:13:31;7.70;99.90
6252;DHT22;3159;52.414;9.784;2022-11-15T01:15:58;7.70;99.90
6252;DHT22;3159;52.414;9.784;2022-11-15T01:18:25;7.70;99.90
6252;DHT22;3159;52.414;9.784;2022-11-15T01:20:52;7.80;99.90
6252;DHT22;3159;52.414;9.784;2022-11-15T01:23:19;7.90;99.90
6252;DHT22;3159;52.414;9.784;2022-11-15T01:25:45;7.80;99.90
6252;DHT22;3159;52.414;9.784;2022-11-15T01:28:12;7.90;99.90
6252;DHT22;3159;52.414;9.784;2022-11-15T01:30:40;7.90;99.90
6252;DHT22;3159;52.414;9.784;2022-11-15T01:33:07;8.00;99.90
6252;DHT22;3159;52.414;9.784;2022-11-15T01:35:38;7.90;99.90
6252;DHT22;3159;52.414;9.784;2022-11-15T01:38:05;8.00;99.90
6252;DHT22;3159;52.414;9.784;2022-11-15T01:40:32;8.00;99.90
6252;DHT22;3159;52.414;9.784;2022-11-15T01:42:59;8.00;99.90
6252;DHT22;3159;52.414;9.784;2022-11-15T01:45:26;8.00;99.90
6252;DHT22;3159;52.414;9.784;2022-11-15T01:47:55;8.10;99.90
6252;DHT22;3159;52.414;9.784;2022-11-15T01:50:24;8.10;99.90
6252;DHT22;3159;52.414;9.784;2022-11-15T01:52:53;8.10;99.90
6252;DHT22;3159;52.414;9.784;2022-11-15T01:55:22;8.10;99.90
6252;DHT22;3159;52.414;9.784;2022-11-15T01:57:53;8.10;99.90
6252;DHT22;3159;52.414;9.784;2022-11-15T02:00:22;8.10;99.90
6252;DHT22;3159;52.414;9.784;2022-11-15T02:02:48;8.00;99.90
6252;DHT22;3159;52.414;9.784;2022-11-15T02:05:17;8.00;99.90
6252;DHT22;3159;52.414;9.784;2022-11-15T02:07:44;8.10;99.90
6252;DHT22;3159;52.414;9.784;2022-11-15T02:10:13;8.10;99.90
6252;DHT22;3159;52.414;9.784;2022-11-15T02:12:41;8.10;99.90
6252;DHT22;3159;52.414;9.784;2022-11-15T02:15:09;8.10;99.90
6252;DHT22;3159;52.414;9.784;2022-11-15T02:18:09;8.00;99.90
6252;DHT22;3159;52.414;9.784;2022-11-15T02:20:51;8.00;99.90
6252;DHT22;3159;52.414;9.784;2022-11-15T02:23:39;8.00;99.90
6252;DHT22;3159;52.414;9.784;2022-11-15T02:26:34;8.10;99.90
6252;DHT22;3159;52.414;9.784;2022-11-15T02:29:05;8.20;99.90
6252;DHT22;3159;52.414;9.784;2022-11-15T02:31:44;8.30;99.90
6252;DHT22;3159;52.414;9.784;2022-11-15T02:34:19;8.30;99.90
6252;DHT22;3159;52.414;9.784;2022-11-15T02:36:59;8.30;99.90
6252;DHT22;3159;52.414;9.784;2022-11-15T02:39:35;8.40;99.90
6252;DHT22;3159;52.414;9.784;2022-11-15T02:42:09;8.50;99.90
6252;DHT22;3159;52.414;9.784;2022-11-15T02:44:53;8.50;99.90
6252;DHT22;3159;52.414;9.784;2022-11-15T02:47:24;8.50;99.90
6252;DHT22;3159;52.414;9.784;2022-11-15T02:49:55;8.60;99.90
6252;DHT22;3159;52.414;9.784;2022-11-15T02:52:24;8.60;99.90
6252;DHT22;3159;52.414;9.784;2022-11-15T02:54:54;8.60;99.90
6252;DHT22;3159;52.414;9.784;2022-11-15T02:57:31;8.60;99.90
6252;DHT22;3159;52.414;9.784;2022-11-15T03:00:06;8.70;99.90
6252;DHT22;3159;52.414;9.784;2022-11-15T03:02:46;8.80;99.90
6252;DHT22;3159;52.414;9.784;2022-11-15T03:05:25;8.80;99.90
6252;DHT22;3159;52.414;9.784;2022-11-15T03:08:02;8.90;99.90
6252;DHT22;3159;52.414;9.784;2022-11-15T03:10:39;8.90;99.90
6252;DHT22;3159;52.414;9.784;2022-11-15T03:13:16;8.80;99.90
6252;DHT22;3159;52.414;9.784;2022-11-15T03:15:50;8.90;99.90
6252;DHT22;3159;52.414;9.784;2022-11-15T03:18:23;8.90;99.90
6252;DHT22;3159;52.414;9.784;2022-11-15T03:20:53;8.90;99.90
6252;DHT22;3159;52.414;9.784;2022-11-15T03:23:21;8.90;99.90
6252;DHT22;3159;52.414;9.784;2022-11-15T03:25:50;8.80;99.90
6252;DHT22;3159;52.414;9.784;2022-11-15T03:28:22;8.80;99.90
6252;DHT22;3159;52.414;9.784;2022-11-15T03:30:51;8.90;99.90
6252;DHT22;3159;52.414;9.784;2022-11-15T03:33:21;9.00;99.90
6252;DHT22;3159;52.414;9.784;2022-11-15T03:35:48;9.00;99.90
6252;DHT22;3159;52.414;9.784;2022-11-15T03:38:20;9.10;99.90
6252;DHT22;3159;52.414;9.784;2022-11-15T03:40:53;9.10;99.90
6252;DHT22;3159;52.414;9.784;2022-11-15T03:43:28;9.10;99.90
6252;DHT22;3159;52.414;9.784;2022-11-15T03:46:00;9.20;99.90
6252;DHT22;3159;52.414;9.784;2022-11-15T03:48:30;9.20;99.90
6252;DHT22;3159;52.414;9.784;2022-11-15T03:51:00;9.10;99.90
6252;DHT22;3159;52.414;9.784;2022-11-15T03:53:28;9.20;99.90
6252;DHT22;3159;52.414;9.784;2022-11-15T03:55:56;9.30;99.90
6252;DHT22;3159;52.414;9.784;2022-11-15T03:58:23;9.20;99.90
6252;DHT22;3159;52.414;9.784;2022-11-15T04:00:49;9.20;99.90
6252;DHT22;3159;52.414;9.784;2022-11-15T04:03:16;9.10;99.90
6252;DHT22;3159;52.414;9.784;2022-11-15T04:05:44;9.10;99.90
6252;DHT22;3159;52.414;9.784;2022-11-15T04:08:11;9.20;99.90
6252;DHT22;3159;52.414;9.784;2022-11-15T04:10:38;9.10;99.90
6252;DHT22;3159;52.414;9.784;2022-11-15T04:13:05;9.10;99.90
6252;DHT22;3159;52.414;9.784;2022-11-15T04:15:32;9.20;99.90
6252;DHT22;3159;52.414;9.784;2022-11-15T04:17:59;9.20;99.90
6252;DHT22;3159;52.414;9.784;2022-11-15T04:20:28;9.10;99.90
6252;DHT22;3159;52.414;9.784;2022-11-15T04:23:16;9.10;99.90
6252;DHT22;3159;52.414;9.784;2022-11-15T04:26:03;9.10;99.90
6252;DHT22;3159;52.414;9.784;2022-11-15T04:28:30;9.10;99.90
6252;DHT22;3159;52.414;9.784;2022-11-15T04:30:57;9.20;99.90
6252;DHT22;3159;52.414;9.784;2022-11-15T04:33:24;9.20;99.90
6252;DHT22;3159;52.414;9.784;2022-11-15T04:35:51;9.20;99.90
6252;DHT22;3159;52.414;9.784;2022-11-15T04:38:33;9.20;99.90
6252;DHT22;3159;52.414;9.784;2022-11-15T04:41:00;9.30;99.90
6252;DHT22;3159;52.414;9.784;2022-11-15T04:43:27;9.30;99.90
6252;DHT22;3159;52.414;9.784;2022-11-15T04:45:54;9.30;99.90
6252;DHT22;3159;52.414;9.784;2022-11-15T04:48:21;9.40;99.90
6252;DHT22;3159;52.414;9.784;2022-11-15T04:50:48;9.40;99.90
6252;DHT22;3159;52.414;9.784;2022-11-15T04:53:15;9.40;99.90
6252;DHT22;3159;52.414;9.784;2022-11-15T04:55:45;9.50;99.90
6252;DHT22;3159;52.414;9.784;2022-11-15T04:58:12;9.50;99.90
6252;DHT22;3159;52.414;9.784;2022-11-15T05:00:39;9.60;99.90
6252;DHT22;3159;52.414;9.784;2022-11-15T05:03:08;9.70;99.90
6252;DHT22;3159;52.414;9.784;2022-11-15T05:05:52;9.70;99.90
6252;DHT22;3159;52.414;9.784;2022-11-15T05:08:19;9.90;99.90
6252;DHT22;3159;52.414;9.784;2022-11-15T05:10:47;9.90;99.90
6252;DHT22;3159;52.414;9.784;2022-11-15T05:13:14;10.00;99.90
6252;DHT22;3159;52.414;9.784;2022-11-15T05:15:41;10.10;99.90
6252;DHT22;3159;52.414;9.784;2022-11-15T05:18:08;10.10;99.90
6252;DHT22;3159;52.414;9.784;2022-11-15T05:20:35;10.20;99.90
6252;DHT22;3159;52.414;9.784;2022-11-15T05:23:02;10.30;99.90
6252;DHT22;3159;52.414;9.784;2022-11-15T05:25:29;10.40;99.90
6252;DHT22;3159;52.414;9.784;2022-11-15T05:27:57;10.40;99.90
6252;DHT22;3159;52.414;9.784;2022-11-15T05:30:24;10.50;99.90
6252;DHT22;3159;52.414;9.784;2022-11-15T05:32:51;10.50;99.90
6252;DHT22;3159;52.414;9.784;2022-11-15T05:35:21;10.60;99.90
6252;DHT22;3159;52.414;9.784;2022-11-15T05:37:51;10.60;99.90
6252;DHT22;3159;52.414;9.784;2022-11-15T05:40:18;10.60;99.90
6252;DHT22;3159;52.414;9.784;2022-11-15T05:42:45;10.60;99.90
6252;DHT22;3159;52.414;9.784;2022-11-15T05:45:14;10.60;99.90
6252;DHT22;3159;52.414;9.784;2022-11-15T05:47:42;10.60;99.90
6252;DHT22;3159;52.414;9.784;2022-11-15T05:50:11;10.60;99.90
6252;DHT22;3159;52.414;9.784;2022-11-15T05:52:39;10.50;99.90
6252;DHT22;3159;52.414;9.784;2022-11-15T05:55:07;10.40;99.90
6252;DHT22;3159;52.414;9.784;2022-11-15T05:57:35;10.40;99.90
6252;DHT22;3159;52.414;9.784;2022-11-15T06:00:03;10.40;99.90
6252;DHT22;3159;52.414;9.784;2022-11-15T06:02:31;10.30;99.90
6252;DHT22;3159;52.414;9.784;2022-11-15T06:04:58;10.40;99.90
6252;DHT22;3159;52.414;9.784;2022-11-15T06:07:25;10.40;99.90
6252;DHT22;3159;52.414;9.784;2022-11-15T06:09:51;10.40;99.90
6252;DHT22;3159;52.414;9.784;2022-11-15T06:12:18;10.40;99.90
6252;DHT22;3159;52.414;9.784;2022-11-15T06:14:45;10.40;99.90
6252;DHT22;3159;52.414;9.784;2022-11-15T06:17:12;10.40;99.90
6252;DHT22;3159;52.414;9.784;2022-11-15T06:19:40;10.20;99.90
6252;DHT22;3159;52.414;9.784;2022-11-15T06:22:08;10.30;99.90
6252;DHT22;3159;52.414;9.784;2022-11-15T06:24:35;10.30;99.90
6252;DHT22;3159;52.414;9.784;2022-11-15T06:27:02;10.20;99.90
6252;DHT22;3159;52.414;9.784;2022-11-15T06:29:29;10.20;99.90
6252;DHT22;3159;52.414;9.784;2022-11-15T06:31:56;10.20;99.90
6252;DHT22;3159;52.414;9.784;2022-11-15T06:34:23;10.20;99.90
6252;DHT22;3159;52.414;9.784;2022-11-15T06:36:51;10.20;99.90
6252;DHT22;3159;52.414;9.784;2022-11-15T06:39:18;10.20;99.90
6252;DHT22;3159;52.414;9.784;2022-11-15T06:41:45;10.20;99.90
6252;DHT22;3159;52.414;9.784;2022-11-15T06:44:11;10.10;99.90
6252;DHT22;3159;52.414;9.784;2022-11-15T06:46:38;10.10;99.90
6252;DHT22;3159;52.414;9.784;2022-11-15T06:49:05;10.10;99.90
6252;DHT22;3159;52.414;9.784;2022-11-15T06:51:32;10.10;99.90
6252;DHT22;3159;52.414;9.784;2022-11-15T06:54:00;10.10;99.90
6252;DHT22;3159;52.414;9.784;2022-11-15T06:56:27;10.10;99.90
6252;DHT22;3159;52.414;9.784;2022-11-15T06:58:55;10.20;99.90
6252;DHT22;3159;52.414;9.784;2022-11-15T07:01:22;10.20;99.90
6252;DHT22;3159;52.414;9.784;2022-11-15T07:03:49;10.10;99.90
6252;DHT22;3159;52.414;9.784;2022-11-15T07:06:16;10.10;99.90
6252;DHT22;3159;52.414;9.784;2022-11-15T07:08:42;10.10;99.90
6252;DHT22;3159;52.414;9.784;2022-11-15T07:11:11;10.00;99.90
6252;DHT22;3159;52.414;9.784;2022-11-15T07:13:38;10.10;99.90
6252;DHT22;3159;52.414;9.784;2022-11-15T07:16:06;10.10;99.90
6252;DHT22;3159;52.414;9.784;2022-11-15T07:18:34;10.20;99.90
6252;DHT22;3159;52.414;9.784;2022-11-15T07:21:02;10.20;99.90
6252;DHT22;3159;52.414;9.784;2022-11-15T07:23:29;10.20;99.90
6252;DHT22;3159;52.414;9.784;2022-11-15T07:25:57;10.20;99.90
6252;DHT22;3159;52.414;9.784;2022-11-15T07:28:26;10.20;99.90
6252;DHT22;3159;52.414;9.784;2022-11-15T07:30:53;10.30;99.90
6252;DHT22;3159;52.414;9.784;2022-11-15T07:33:20;10.40;99.90
6252;DHT22;3159;52.414;9.784;2022-11-15T07:35:47;10.50;99.90
6252;DHT22;3159;52.414;9.784;2022-11-15T07:38:17;10.50;99.90
6252;DHT22;3159;52.414;9.784;2022-11-15T07:40:45;10.60;99.90
6252;DHT22;3159;52.414;9.784;2022-11-15T07:43:12;10.70;99.90
6252;DHT22;3159;52.414;9.784;2022-11-15T07:45:44;10.70;99.90
6252;DHT22;3159;52.414;9.784;2022-11-15T07:48:12;10.70;99.90
6252;DHT22;3159;52.414;9.784;2022-11-15T07:50:41;10.70;99.90
6252;DHT22;3159;52.414;9.784;2022-11-15T07:53:09;10.70;99.90
6252;DHT22;3159;52.414;9.784;2022-11-15T07:55:36;10.80;99.90
6252;DHT22;3159;52.414;9.784;2022-11-15T07:58:05;10.70;99.90
6252;DHT22;3159;52.414;9.784;2022-11-15T08:00:33;10.60;99.90
6252;DHT22;3159;52.414;9.784;2022-11-15T08:03:06;10.60;99.90
6252;DHT22;3159;52.414;9.784;2022-11-15T08:05:33;10.60;99.90
6252;DHT22;3159;52.414;9.784;2022-11-15T08:08:00;10.60;99.90
6252;DHT22;3159;52.414;9.784;2022-11-15T08:10:28;10.60;99.90
6252;DHT22;3159;52.414;9.784;2022-11-15T08:12:59;10.70;99.90
6252;DHT22;3159;52.414;9.784;2022-11-15T08:15:26;10.70;99.90
6252;DHT22;3159;52.414;9.784;2022-11-15T08:17:54;10.70;99.90
6252;DHT22;3159;52.414;9.784;2022-11-15T08:20:23;10.70;99.90
6252;DHT22;3159;52.414;9.784;2022-11-15T08:22:51;10.70;99.90
6252;DHT22;3159;52.414;9.784;2022-11-15T08:25:17;10.70;99.90
6252;DHT22;3159;52.414;9.784;2022-11-15T08:27:45;10.90;99.90
6252;DHT22;3159;52.414;9.784;2022-11-15T08:30:12;11.00;99.90
6252;DHT22;3159;52.414;9.784;2022-11-15T08:32:41;11.30;99.90
6252;DHT22;3159;52.414;9.784;2022-11-15T08:35:08;11.60;99.90
6252;DHT22;3159;52.414;9.784;2022-11-15T08:37:36;11.90;99.90
6252;DHT22;3159;52.414;9.784;2022-11-15T08:40:04;12.20;99.90
6252;DHT22;3159;52.414;9.784;2022-11-15T08:42:31;12.50;99.90
6252;DHT22;3159;52.414;9.784;2022-11-15T08:44:58;12.80;99.90
6252;DHT22;3159;52.414;9.784;2022-11-15T08:47:25;12.90;99.90
6252;DHT22;3159;52.414;9.784;2022-11-15T08:49:52;13.10;99.90
6252;DHT22;3159;52.414;9.784;2022-11-15T08:52:19;13.30;99.90
6252;DHT22;3159;52.414;9.784;2022-11-15T08:54:47;13.40;99.90
6252;DHT22;3159;52.414;9.784;2022-11-15T08:57:14;13.30;99.90
6252;DHT22;3159;52.414;9.784;2022-11-15T08:59:41;13.70;99.90
6252;DHT22;3159;52.414;9.784;2022-11-15T09:02:11;13.40;99.90
6252;DHT22;3159;52.414;9.784;2022-11-15T09:04:39;13.80;99.90
6252;DHT22;3159;52.414;9.784;2022-11-15T09:07:08;13.60;99.90
6252;DHT22;3159;52.414;9.784;2022-11-15T09:09:35;13.60;99.90
6252;DHT22;3159;52.414;9.784;2022-11-15T09:12:04;13.70;99.90
6252;DHT22;3159;52.414;9.784;2022-11-15T09:14:32;13.70;99.90
6252;DHT22;3159;52.414;9.784;2022-11-15T09:16:59;13.80;99.90
6252;DHT22;3159;52.414;9.784;2022-11-15T09:19:26;14.00;99.90
6252;DHT22;3159;52.414;9.784;2022-11-15T09:21:53;14.00;99.90
6252;DHT22;3159;52.414;9.784;2022-11-15T09:24:20;14.20;99.90
6252;DHT22;3159;52.414;9.784;2022-11-15T09:26:49;14.20;99.90
6252;DHT22;3159;52.414;9.784;2022-11-15T09:29:48;14.40;99.90
6252;DHT22;3159;52.414;9.784;2022-11-15T09:32:45;14.50;99.90
6252;DHT22;3159;52.414;9.784;2022-11-15T09:35:12;14.50;99.90
6252;DHT22;3159;52.414;9.784;2022-11-15T09:37:39;14.80;99.90
6252;DHT22;3159;52.414;9.784;2022-11-15T09:40:09;14.60;99.90
6252;DHT22;3159;52.414;9.784;2022-11-15T09:42:50;15.10;99.90
6252;DHT22;3159;52.414;9.784;2022-11-15T09:45:24;15.10;99.90
6252;DHT22;3159;52.414;9.784;2022-11-15T09:48:19;15.10;99.90
6252;DHT22;3159;52.414;9.784;2022-11-15T09:50:50;14.70;99.90
6252;DHT22;3159;52.414;9.784;2022-11-15T09:53:24;14.40;99.90
6252;DHT22;3159;52.414;9.784;2022-11-15T09:55:57;14.80;99.90
6252;DHT22;3159;52.414;9.784;2022-11-15T09:58:31;14.50;99.90
6252;DHT22;3159;52.414;9.784;2022-11-15T10:01:04;14.50;99.90
6252;DHT22;3159;52.414;9.784;2022-11-15T10:03:34;14.70;99.90
6252;DHT22;3159;52.414;9.784;2022-11-15T10:06:04;14.60;99.90
6252;DHT22;3159;52.414;9.784;2022-11-15T10:08:50;14.90;99.90
6252;DHT22;3159;52.414;9.784;2022-11-15T10:11:22;15.10;99.90
6252;DHT22;3159;52.414;9.784;2022-11-15T10:13:52;15.40;99.90
6252;DHT22;3159;52.414;9.784;2022-11-15T10:19:23;15.30;99.90
6252;DHT22;3159;52.414;9.784;2022-11-15T10:22:03;15.20;99.90
6252;DHT22;3159;52.414;9.784;2022-11-15T10:24:35;15.00;99.90
6252;DHT22;3159;52.414;9.784;2022-11-15T10:27:09;15.10;99.90
6252;DHT22;3159;52.414;9.784;2022-11-15T10:29:42;15.20;99.90
6252;DHT22;3159;52.414;9.784;2022-11-15T10:32:10;15.20;99.90
6252;DHT22;3159;52.414;9.784;2022-11-15T10:34:40;15.40;99.90
6252;DHT22;3159;52.414;9.784;2022-11-15T10:37:07;15.30;99.90
6252;DHT22;3159;52.414;9.784;2022-11-15T10:39:34;15.30;99.90
6252;DHT22;3159;52.414;9.784;2022-11-15T10:42:16;15.30;99.90
6252;DHT22;3159;52.414;9.784;2022-11-15T10:44:44;15.20;99.90
6252;DHT22;3159;52.414;9.784;2022-11-15T10:47:26;14.90;99.90
6252;DHT22;3159;52.414;9.784;2022-11-15T10:49:57;15.00;99.90
6252;DHT22;3159;52.414;9.784;2022-11-15T10:52:24;15.10;99.90
6252;DHT22;3159;52.414;9.784;2022-11-15T10:54:54;15.00;99.90
6252;DHT22;3159;52.414;9.784;2022-11-15T10:57:24;14.90;99.90
6252;DHT22;3159;52.414;9.784;2022-11-15T10:59:54;15.10;99.90
6252;DHT22;3159;52.414;9.784;2022-11-15T11:02:28;15.00;99.90
6252;DHT22;3159;52.414;9.784;2022-11-15T11:04:57;15.00;99.90
6252;DHT22;3159;52.414;9.784;2022-11-15T11:07:26;15.10;99.90
6252;DHT22;3159;52.414;9.784;2022-11-15T11:10:01;15.00;99.90
6252;DHT22;3159;52.414;9.784;2022-11-15T11:12:30;14.90;99.90
6252;DHT22;3159;52.414;9.784;2022-11-15T11:14:59;15.00;99.90
6252;DHT22;3159;52.414;9.784;2022-11-15T11:17:34;15.00;99.90
6252;DHT22;3159;52.414;9.784;2022-11-15T11:20:10;14.90;99.90
6252;DHT22;3159;52.414;9.784;2022-11-15T11:22:43;14.70;99.90
6252;DHT22;3159;52.414;9.784;2022-11-15T11:25:22;14.80;99.90
6252;DHT22;3159;52.414;9.784;2022-11-15T11:28:01;14.80;99.90
6252;DHT22;3159;52.414;9.784;2022-11-15T11:30:39;14.50;99.90
6252;DHT22;3159;52.414;9.784;2022-11-15T11:33:14;14.40;99.90
6252;DHT22;3159;52.414;9.784;2022-11-15T11:35:50;14.50;99.90
6252;DHT22;3159;52.414;9.784;2022-11-15T11:38:28;14.80;99.90
6252;DHT22;3159;52.414;9.784;2022-11-15T11:41:06;14.60;99.90
6252;DHT22;3159;52.414;9.784;2022-11-15T11:43:41;14.40;99.90
6252;DHT22;3159;52.414;9.784;2022-11-15T11:46:25;14.30;99.90
6252;DHT22;3159;52.414;9.784;2022-11-15T11:49:01;14.10;99.90
6252;DHT22;3159;52.414;9.784;2022-11-15T11:51:34;14.30;99.90
6252;DHT22;3159;52.414;9.784;2022-11-15T11:54:09;14.40;99.90
6252;DHT22;3159;52.414;9.784;2022-11-15T11:56:41;14.40;99.90
6252;DHT22;3159;52.414;9.784;2022-11-15T11:59:18;14.40;99.90
6252;DHT22;3159;52.414;9.784;2022-11-15T12:01:45;14.20;99.90
6252;DHT22;3159;52.414;9.784;2022-11-15T12:04:15;14.30;99.90
6252;DHT22;3159;52.414;9.784;2022-11-15T12:06:50;14.40;99.90
6252;DHT22;3159;52.414;9.784;2022-11-15T12:09:22;14.30;99.90
6252;DHT22;3159;52.414;9.784;2022-11-15T12:11:55;14.30;99.90
6252;DHT22;3159;52.414;9.784;2022-11-15T12:14:29;14.30;99.90
6252;DHT22;3159;52.414;9.784;2022-11-15T12:16:57;14.30;99.90
6252;DHT22;3159;52.414;9.784;2022-11-15T12:19:24;14.30;99.90
6252;DHT22;3159;52.414;9.784;2022-11-15T12:21:58;14.30;99.90
6252;DHT22;3159;52.414;9.784;2022-11-15T12:24:29;14.50;99.90
6252;DHT22;3159;52.414;9.784;2022-11-15T12:27:01;14.40;99.90
6252;DHT22;3159;52.414;9.784;2022-11-15T12:29:35;14.20;99.90
6252;DHT22;3159;52.414;9.784;2022-11-15T12:32:03;14.30;99.90
6252;DHT22;3159;52.414;9.784;2022-11-15T12:34:42;14.30;99.90
6252;DHT22;3159;52.414;9.784;2022-11-15T12:40:20;14.20;99.90
6252;DHT22;3159;52.414;9.784;2022-11-15T12:46:02;14.20;99.90
6252;DHT22;3159;52.414;9.784;2022-11-15T12:48:57;14.30;99.90
6252;DHT22;3159;52.414;9.784;2022-11-15T12:54:54;14.30;99.90
6252;DHT22;3159;52.414;9.784;2022-11-15T12:57:41;14.40;99.90
6252;DHT22;3159;52.414;9.784;2022-11-15T13:03:28;14.40;99.90
6252;DHT22;3159;52.414;9.784;2022-11-15T13:08:52;14.40;99.90
6252;DHT22;3159;52.414;9.784;2022-11-15T13:11:45;14.50;99.90
6252;DHT22;3159;52.414;9.784;2022-11-15T13:14:43;14.40;99.90
6252;DHT22;3159;52.414;9.784;2022-11-15T13:17:24;14.60;99.90
6252;DHT22;3159;52.414;9.784;2022-11-15T13:19:57;14.50;99.90
6252;DHT22;3159;52.414;9.784;2022-11-15T13:22:25;14.40;99.90
6252;DHT22;3159;52.414;9.784;2022-11-15T13:25:19;14.40;99.90
6252;DHT22;3159;52.414;9.784;2022-11-15T13:27:48;14.40;99.90
6252;DHT22;3159;52.414;9.784;2022-11-15T13:30:20;14.40;99.90
6252;DHT22;3159;52.414;9.784;2022-11-15T13:32:48;14.50;99.90
6252;DHT22;3159;52.414;9.784;2022-11-15T13:35:20;14.50;99.90
6252;DHT22;3159;52.414;9.784;2022-11-15T13:37:48;14.50;99.90
6252;DHT22;3159;52.414;9.784;2022-11-15T13:40:25;14.50;99.90
6252;DHT22;3159;52.414;9.784;2022-11-15T13:42:53;14.60;99.90
6252;DHT22;3159;52.414;9.784;2022-11-15T13:45:21;14.40;99.90
6252;DHT22;3159;52.414;9.784;2022-11-15T13:47:53;14.50;99.90
6252;DHT22;3159;52.414;9.784;2022-11-15T13:50:23;14.40;99.90
6252;DHT22;3159;52.414;9.784;2022-11-15T13:52:51;14.40;99.90
6252;DHT22;3159;52.414;9.784;2022-11-15T13:55:20;14.50;99.90
6252;DHT22;3159;52.414;9.784;2022-11-15T13:57:49;14.50;99.90
6252;DHT22;3159;52.414;9.784;2022-11-15T14:00:30;14.50;99.90
6252;DHT22;3159;52.414;9.784;2022-11-15T14:03:07;14.70;99.90
6252;DHT22;3159;52.414;9.784;2022-11-15T14:05:34;14.50;99.90
6252;DHT22;3159;52.414;9.784;2022-11-15T14:08:03;14.40;99.90
6252;DHT22;3159;52.414;9.784;2022-11-15T14:10:32;14.30;99.90
6252;DHT22;3159;52.414;9.784;2022-11-15T14:13:00;14.20;99.90
6252;DHT22;3159;52.414;9.784;2022-11-15T14:15:30;14.30;99.90
6252;DHT22;3159;52.414;9.784;2022-11-15T14:17:58;14.20;99.90
6252;DHT22;3159;52.414;9.784;2022-11-15T14:20:28;14.20;99.90
6252;DHT22;3159;52.414;9.784;2022-11-15T14:22:57;14.10;99.90
6252;DHT22;3159;52.414;9.784;2022-11-15T14:25:25;14.10;99.90
6252;DHT22;3159;52.414;9.784;2022-11-15T14:28:14;14.00;99.90
6252;DHT22;3159;52.414;9.784;2022-11-15T14:30:44;14.00;99.90
6252;DHT22;3159;52.414;9.784;2022-11-15T14:33:21;14.00;99.90
6252;DHT22;3159;52.414;9.784;2022-11-15T14:35:49;14.00;99.90
6252;DHT22;3159;52.414;9.784;2022-11-15T14:38:16;14.00;99.90
6252;DHT22;3159;52.414;9.784;2022-11-15T14:40:43;14.00;99.90
6252;DHT22;3159;52.414;9.784;2022-11-15T14:43:11;14.00;99.90
6252;DHT22;3159;52.414;9.784;2022-11-15T14:45:39;14.10;99.90
6252;DHT22;3159;52.414;9.784;2022-11-15T14:48:07;14.00;99.90
6252;DHT22;3159;52.414;9.784;2022-11-15T14:50:35;13.90;99.90
6252;DHT22;3159;52.414;9.784;2022-11-15T14:53:02;14.00;99.90
6252;DHT22;3159;52.414;9.784;2022-11-15T14:55:31;14.00;99.90
6252;DHT22;3159;52.414;9.784;2022-11-15T14:58:00;14.00;99.90
6252;DHT22;3159;52.414;9.784;2022-11-15T15:00:28;14.00;99.90
6252;DHT22;3159;52.414;9.784;2022-11-15T15:02:55;13.80;99.90
6252;DHT22;3159;52.414;9.784;2022-11-15T15:05:25;13.90;99.90
6252;DHT22;3159;52.414;9.784;2022-11-15T15:07:53;13.90;99.90
6252;DHT22;3159;52.414;9.784;2022-11-15T15:10:20;13.90;99.90
6252;DHT22;3159;52.414;9.784;2022-11-15T15:12:47;13.90;99.90
6252;DHT22;3159;52.414;9.784;2022-11-15T15:15:15;13.70;99.90
6252;DHT22;3159;52.414;9.784;2022-11-15T15:17:43;13.80;99.90
6252;DHT22;3159;52.414;9.784;2022-11-15T15:20:10;13.80;99.90
6252;DHT22;3159;52.414;9.784;2022-11-15T15:22:38;13.80;99.90
6252;DHT22;3159;52.414;9.784;2022-11-15T15:25:20;13.80;99.90
6252;DHT22;3159;52.414;9.784;2022-11-15T15:27:47;13.80;99.90
6252;DHT22;3159;52.414;9.784;2022-11-15T15:30:14;13.80;99.90
6252;DHT22;3159;52.414;9.784;2022-11-15T15:32:41;13.70;99.90
6252;DHT22;3159;52.414;9.784;2022-11-15T15:35:11;13.80;99.90
6252;DHT22;3159;52.414;9.784;2022-11-15T15:37:41;13.80;99.90
6252;DHT22;3159;52.414;9.784;2022-11-15T15:40:12;13.80;99.90
6252;DHT22;3159;52.414;9.784;2022-11-15T15:42:39;13.80;99.90
6252;DHT22;3159;52.414;9.784;2022-11-15T15:45:07;13.90;99.90
6252;DHT22;3159;52.414;9.784;2022-11-15T15:47:34;13.90;99.90
6252;DHT22;3159;52.414;9.784;2022-11-15T15:50:09;13.80;99.90
6252;DHT22;3159;52.414;9.784;2022-11-15T15:52:39;13.70;99.90
6252;DHT22;3159;52.414;9.784;2022-11-15T15:55:07;13.80;99.90
6252;DHT22;3159;52.414;9.784;2022-11-15T15:57:34;13.70;99.90
6252;DHT22;3159;52.414;9.784;2022-11-15T16:00:01;13.70;99.90
6252;DHT22;3159;52.414;9.784;2022-11-15T16:02:29;13.70;99.90
6252;DHT22;3159;52.414;9.784;2022-11-15T16:04:55;13.70;99.90
6252;DHT22;3159;52.414;9.784;2022-11-15T16:07:22;13.60;99.90
6252;DHT22;3159;52.414;9.784;2022-11-15T16:09:51;13.60;99.90
6252;DHT22;3159;52.414;9.784;2022-11-15T16:12:27;13.60;99.90
6252;DHT22;3159;52.414;9.784;2022-11-15T16:14:54;13.50;99.90
6252;DHT22;3159;52.414;9.784;2022-11-15T16:17:23;13.50;99.90
6252;DHT22;3159;52.414;9.784;2022-11-15T16:19:50;13.60;99.90
6252;DHT22;3159;52.414;9.784;2022-11-15T16:22:17;13.50;99.90
6252;DHT22;3159;52.414;9.784;2022-11-15T16:24:44;13.60;99.90
6252;DHT22;3159;52.414;9.784;2022-11-15T16:27:14;13.50;99.90
6252;DHT22;3159;52.414;9.784;2022-11-15T16:29:41;13.40;99.90
6252;DHT22;3159;52.414;9.784;2022-11-15T16:32:09;13.40;99.90
6252;DHT22;3159;52.414;9.784;2022-11-15T16:34:36;13.40;99.90
6252;DHT22;3159;52.414;9.784;2022-11-15T16:37:03;13.40;99.90
6252;DHT22;3159;52.414;9.784;2022-11-15T16:39:30;13.30;99.90
6252;DHT22;3159;52.414;9.784;2022-11-15T16:41:57;13.40;99.90
6252;DHT22;3159;52.414;9.784;2022-11-15T16:44:26;13.30;99.90
6252;DHT22;3159;52.414;9.784;2022-11-15T16:46:54;13.20;99.90